Zulu, Indiana
Current Conditions -  °F | °C
As of 10:54 AM on Sunday 25 Jan 2015 (Local Time) from KFWA Reporting Station
Light Snow Light Snow  
Wind Chill: 22°   Ceiling: 600
Heat Index: 34°   Visibility: 1.2mi
Dew Point: 32°   Wind: 22mph
Humidity: 92%   Direction: 70°ENE
Pressure: 29.75"   Gusts: NA
Location:  40.9863°N, 84.8797°W
Report Text: KFWA 251554Z 07019KT 1 1/4SM -SN BR OVC006 01/00 A2975 RMK AO2 RAE29SNB20 SLP082 P0001 T00110000
Loading
Personal Weather Stations






























Interactive Weather Map New forecast layout! Learn more

10-Day Weather Forecast

Advertisements
Track Severe Weather on mobile